sensor_id;sensor_type;location;lat;lon;timestamp;temperature;humidity
4578;DHT22;2301;47.354;8.528;2024-02-26T00:02:11;10.00;62.00
4578;DHT22;2301;47.354;8.528;2024-02-26T00:04:38;10.00;61.90
4578;DHT22;2301;47.354;8.528;2024-02-26T00:07:04;10.00;61.80
4578;DHT22;2301;47.354;8.528;2024-02-26T00:09:32;10.00;61.70
4578;DHT22;2301;47.354;8.528;2024-02-26T00:12:01;10.00;61.60
4578;DHT22;2301;47.354;8.528;2024-02-26T00:14:29;10.00;61.60
4578;DHT22;2301;47.354;8.528;2024-02-26T00:16:57;10.00;61.80
4578;DHT22;2301;47.354;8.528;2024-02-26T00:19:24;10.00;62.00
4578;DHT22;2301;47.354;8.528;2024-02-26T00:21:51;10.00;61.70
4578;DHT22;2301;47.354;8.528;2024-02-26T00:24:19;10.00;61.60
4578;DHT22;2301;47.354;8.528;2024-02-26T00:26:46;10.00;61.80
4578;DHT22;2301;47.354;8.528;2024-02-26T00:29:18;10.00;61.70
4578;DHT22;2301;47.354;8.528;2024-02-26T00:31:45;10.00;61.60
4578;DHT22;2301;47.354;8.528;2024-02-26T00:34:13;10.00;61.80
4578;DHT22;2301;47.354;8.528;2024-02-26T00:36:40;10.00;61.80
4578;DHT22;2301;47.354;8.528;2024-02-26T00:39:07;10.00;62.10
4578;DHT22;2301;47.354;8.528;2024-02-26T00:41:38;10.00;62.10
4578;DHT22;2301;47.354;8.528;2024-02-26T00:44:05;10.00;61.60
4578;DHT22;2301;47.354;8.528;2024-02-26T00:46:32;10.00;61.40
4578;DHT22;2301;47.354;8.528;2024-02-26T00:48:59;10.00;61.10
4578;DHT22;2301;47.354;8.528;2024-02-26T00:51:27;10.00;61.00
4578;DHT22;2301;47.354;8.528;2024-02-26T00:53:54;10.00;60.90
4578;DHT22;2301;47.354;8.528;2024-02-26T00:56:21;10.00;60.70
4578;DHT22;2301;47.354;8.528;2024-02-26T00:58:48;10.00;60.50
4578;DHT22;2301;47.354;8.528;2024-02-26T01:01:15;10.00;60.40
4578;DHT22;2301;47.354;8.528;2024-02-26T01:03:42;10.00;60.00
4578;DHT22;2301;47.354;8.528;2024-02-26T01:06:09;10.00;59.70
4578;DHT22;2301;47.354;8.528;2024-02-26T01:08:37;10.00;59.20
4578;DHT22;2301;47.354;8.528;2024-02-26T01:11:04;10.00;59.20
4578;DHT22;2301;47.354;8.528;2024-02-26T01:13:31;10.00;59.40
4578;DHT22;2301;47.354;8.528;2024-02-26T01:15:58;10.00;59.00
4578;DHT22;2301;47.354;8.528;2024-02-26T01:18:26;10.00;59.00
4578;DHT22;2301;47.354;8.528;2024-02-26T01:20:53;10.10;59.20
4578;DHT22;2301;47.354;8.528;2024-02-26T01:23:20;10.10;59.20
4578;DHT22;2301;47.354;8.528;2024-02-26T01:25:48;10.10;59.30
4578;DHT22;2301;47.354;8.528;2024-02-26T01:28:16;10.10;59.30
4578;DHT22;2301;47.354;8.528;2024-02-26T01:30:43;10.10;59.30
4578;DHT22;2301;47.354;8.528;2024-02-26T01:33:10;10.10;59.30
4578;DHT22;2301;47.354;8.528;2024-02-26T01:35:37;10.10;59.30
4578;DHT22;2301;47.354;8.528;2024-02-26T01:38:04;10.20;59.40
4578;DHT22;2301;47.354;8.528;2024-02-26T01:40:31;10.20;59.20
4578;DHT22;2301;47.354;8.528;2024-02-26T01:43:01;10.20;59.20
4578;DHT22;2301;47.354;8.528;2024-02-26T01:45:28;10.20;59.30
4578;DHT22;2301;47.354;8.528;2024-02-26T01:47:55;10.20;59.40
4578;DHT22;2301;47.354;8.528;2024-02-26T01:50:23;10.20;59.40
4578;DHT22;2301;47.354;8.528;2024-02-26T01:52:52;10.20;59.50
4578;DHT22;2301;47.354;8.528;2024-02-26T01:55:24;10.20;59.50
4578;DHT22;2301;47.354;8.528;2024-02-26T01:57:55;10.20;59.50
4578;DHT22;2301;47.354;8.528;2024-02-26T02:00:23;10.20;59.50
4578;DHT22;2301;47.354;8.528;2024-02-26T02:02:51;10.20;59.70
4578;DHT22;2301;47.354;8.528;2024-02-26T02:05:20;10.20;59.80
4578;DHT22;2301;47.354;8.528;2024-02-26T02:07:48;10.20;59.70
4578;DHT22;2301;47.354;8.528;2024-02-26T02:10:15;10.20;59.80
4578;DHT22;2301;47.354;8.528;2024-02-26T02:12:43;10.20;59.80
4578;DHT22;2301;47.354;8.528;2024-02-26T02:15:10;10.20;59.90
4578;DHT22;2301;47.354;8.528;2024-02-26T02:17:39;10.20;60.10
4578;DHT22;2301;47.354;8.528;2024-02-26T02:20:08;10.20;60.20
4578;DHT22;2301;47.354;8.528;2024-02-26T02:22:37;10.20;60.30
4578;DHT22;2301;47.354;8.528;2024-02-26T02:25:05;10.20;60.40
4578;DHT22;2301;47.354;8.528;2024-02-26T02:27:32;10.20;60.60
4578;DHT22;2301;47.354;8.528;2024-02-26T02:29:59;10.20;60.70
4578;DHT22;2301;47.354;8.528;2024-02-26T02:32:26;10.20;60.60
4578;DHT22;2301;47.354;8.528;2024-02-26T02:34:54;10.20;60.80
4578;DHT22;2301;47.354;8.528;2024-02-26T02:37:21;10.20;60.80
4578;DHT22;2301;47.354;8.528;2024-02-26T02:39:50;10.20;61.00
4578;DHT22;2301;47.354;8.528;2024-02-26T02:42:19;10.20;61.10
4578;DHT22;2301;47.354;8.528;2024-02-26T02:44:46;10.40;70.70
4578;DHT22;2301;47.354;8.528;2024-02-26T02:47:12;10.90;77.90
4578;DHT22;2301;47.354;8.528;2024-02-26T02:49:39;11.50;78.70
4578;DHT22;2301;47.354;8.528;2024-02-26T02:52:06;11.90;77.80
4578;DHT22;2301;47.354;8.528;2024-02-26T02:54:34;11.90;71.90
4578;DHT22;2301;47.354;8.528;2024-02-26T02:57:12;11.80;66.70
4578;DHT22;2301;47.354;8.528;2024-02-26T02:59:39;11.60;64.10
4578;DHT22;2301;47.354;8.528;2024-02-26T03:02:06;11.40;62.90
4578;DHT22;2301;47.354;8.528;2024-02-26T03:04:33;11.30;62.40
4578;DHT22;2301;47.354;8.528;2024-02-26T03:07:00;11.20;62.30
4578;DHT22;2301;47.354;8.528;2024-02-26T03:09:27;11.00;62.10
4578;DHT22;2301;47.354;8.528;2024-02-26T03:11:54;10.90;61.90
4578;DHT22;2301;47.354;8.528;2024-02-26T03:14:22;10.80;61.80
4578;DHT22;2301;47.354;8.528;2024-02-26T03:16:53;10.80;62.00
4578;DHT22;2301;47.354;8.528;2024-02-26T03:19:20;10.70;62.00
4578;DHT22;2301;47.354;8.528;2024-02-26T03:21:47;10.70;62.10
4578;DHT22;2301;47.354;8.528;2024-02-26T03:24:19;10.60;62.10
4578;DHT22;2301;47.354;8.528;2024-02-26T03:26:53;10.60;62.30
4578;DHT22;2301;47.354;8.528;2024-02-26T03:29:24;10.50;62.30
4578;DHT22;2301;47.354;8.528;2024-02-26T03:31:54;10.40;62.50
4578;DHT22;2301;47.354;8.528;2024-02-26T03:34:22;10.40;62.60
4578;DHT22;2301;47.354;8.528;2024-02-26T03:36:49;10.30;62.60
4578;DHT22;2301;47.354;8.528;2024-02-26T03:39:16;10.30;62.90
4578;DHT22;2301;47.354;8.528;2024-02-26T03:41:45;10.30;63.30
4578;DHT22;2301;47.354;8.528;2024-02-26T03:44:12;10.20;63.30
4578;DHT22;2301;47.354;8.528;2024-02-26T03:46:40;10.20;63.40
4578;DHT22;2301;47.354;8.528;2024-02-26T03:49:08;10.10;63.50
4578;DHT22;2301;47.354;8.528;2024-02-26T03:51:36;10.10;63.60
4578;DHT22;2301;47.354;8.528;2024-02-26T03:54:06;10.10;63.80
4578;DHT22;2301;47.354;8.528;2024-02-26T03:56:34;10.00;63.90
4578;DHT22;2301;47.354;8.528;2024-02-26T03:59:01;10.00;64.10
4578;DHT22;2301;47.354;8.528;2024-02-26T04:01:28;10.00;64.20
4578;DHT22;2301;47.354;8.528;2024-02-26T04:03:56;10.00;64.40
4578;DHT22;2301;47.354;8.528;2024-02-26T04:06:23;10.00;64.60
4578;DHT22;2301;47.354;8.528;2024-02-26T04:08:50;10.00;64.70
4578;DHT22;2301;47.354;8.528;2024-02-26T04:11:17;9.90;65.70
4578;DHT22;2301;47.354;8.528;2024-02-26T04:13:44;9.90;65.90
4578;DHT22;2301;47.354;8.528;2024-02-26T04:16:15;9.90;66.00
4578;DHT22;2301;47.354;8.528;2024-02-26T04:18:42;9.90;66.10
4578;DHT22;2301;47.354;8.528;2024-02-26T04:21:10;9.90;66.40
4578;DHT22;2301;47.354;8.528;2024-02-26T04:23:37;9.80;66.60
4578;DHT22;2301;47.354;8.528;2024-02-26T04:26:05;9.80;66.90
4578;DHT22;2301;47.354;8.528;2024-02-26T04:28:32;9.80;67.10
4578;DHT22;2301;47.354;8.528;2024-02-26T04:30:59;9.80;67.50
4578;DHT22;2301;47.354;8.528;2024-02-26T04:33:26;9.80;67.80
4578;DHT22;2301;47.354;8.528;2024-02-26T04:35:53;9.90;68.00
4578;DHT22;2301;47.354;8.528;2024-02-26T04:38:21;9.90;68.10
4578;DHT22;2301;47.354;8.528;2024-02-26T04:40:48;9.90;68.40
4578;DHT22;2301;47.354;8.528;2024-02-26T04:43:15;9.90;68.60
4578;DHT22;2301;47.354;8.528;2024-02-26T04:45:43;9.90;68.70
4578;DHT22;2301;47.354;8.528;2024-02-26T04:48:10;9.90;69.00
4578;DHT22;2301;47.354;8.528;2024-02-26T04:50:37;9.90;68.90
4578;DHT22;2301;47.354;8.528;2024-02-26T04:53:04;9.90;69.10
4578;DHT22;2301;47.354;8.528;2024-02-26T04:55:32;9.90;69.00
4578;DHT22;2301;47.354;8.528;2024-02-26T04:57:59;9.90;69.10
4578;DHT22;2301;47.354;8.528;2024-02-26T05:00:27;9.90;68.90
4578;DHT22;2301;47.354;8.528;2024-02-26T05:02:53;10.00;67.80
4578;DHT22;2301;47.354;8.528;2024-02-26T05:05:20;9.90;68.60
4578;DHT22;2301;47.354;8.528;2024-02-26T05:07:47;9.90;68.50
4578;DHT22;2301;47.354;8.528;2024-02-26T05:10:14;9.90;68.40
4578;DHT22;2301;47.354;8.528;2024-02-26T05:12:42;9.90;69.30
4578;DHT22;2301;47.354;8.528;2024-02-26T05:15:10;9.90;68.70
4578;DHT22;2301;47.354;8.528;2024-02-26T05:17:37;9.90;68.80
4578;DHT22;2301;47.354;8.528;2024-02-26T05:20:04;9.90;68.90
4578;DHT22;2301;47.354;8.528;2024-02-26T05:22:33;9.90;69.00
4578;DHT22;2301;47.354;8.528;2024-02-26T05:25:00;9.90;69.20
4578;DHT22;2301;47.354;8.528;2024-02-26T05:27:27;9.90;69.40
4578;DHT22;2301;47.354;8.528;2024-02-26T05:29:55;9.90;69.40
4578;DHT22;2301;47.354;8.528;2024-02-26T05:32:22;9.90;69.60
4578;DHT22;2301;47.354;8.528;2024-02-26T05:34:49;9.90;69.90
4578;DHT22;2301;47.354;8.528;2024-02-26T05:37:16;9.90;70.00
4578;DHT22;2301;47.354;8.528;2024-02-26T05:39:43;9.90;70.20
4578;DHT22;2301;47.354;8.528;2024-02-26T05:42:10;9.90;70.40
4578;DHT22;2301;47.354;8.528;2024-02-26T05:44:37;9.90;70.50
4578;DHT22;2301;47.354;8.528;2024-02-26T05:47:05;9.90;70.70
4578;DHT22;2301;47.354;8.528;2024-02-26T05:49:32;9.80;70.80
4578;DHT22;2301;47.354;8.528;2024-02-26T05:52:01;9.80;70.90
4578;DHT22;2301;47.354;8.528;2024-02-26T05:54:31;9.80;70.80
4578;DHT22;2301;47.354;8.528;2024-02-26T05:57:01;9.80;71.00
4578;DHT22;2301;47.354;8.528;2024-02-26T05:59:31;9.80;71.10
4578;DHT22;2301;47.354;8.528;2024-02-26T06:02:00;9.80;71.30
4578;DHT22;2301;47.354;8.528;2024-02-26T06:04:30;9.80;71.20
4578;DHT22;2301;47.354;8.528;2024-02-26T06:06:56;9.80;71.20
4578;DHT22;2301;47.354;8.528;2024-02-26T06:09:23;9.80;71.40
4578;DHT22;2301;47.354;8.528;2024-02-26T06:11:50;9.70;71.40
4578;DHT22;2301;47.354;8.528;2024-02-26T06:14:17;9.70;71.40
4578;DHT22;2301;47.354;8.528;2024-02-26T06:16:45;9.70;71.40
4578;DHT22;2301;47.354;8.528;2024-02-26T06:19:13;9.70;71.70
4578;DHT22;2301;47.354;8.528;2024-02-26T06:21:42;9.70;72.10
4578;DHT22;2301;47.354;8.528;2024-02-26T06:24:09;9.70;72.20
4578;DHT22;2301;47.354;8.528;2024-02-26T06:26:35;9.70;72.30
4578;DHT22;2301;47.354;8.528;2024-02-26T06:29:02;9.70;72.40
4578;DHT22;2301;47.354;8.528;2024-02-26T06:31:29;9.60;72.40
4578;DHT22;2301;47.354;8.528;2024-02-26T06:33:56;9.60;72.50
4578;DHT22;2301;47.354;8.528;2024-02-26T06:39:00;9.60;72.60
4578;DHT22;2301;47.354;8.528;2024-02-26T06:41:28;9.70;72.30
4578;DHT22;2301;47.354;8.528;2024-02-26T06:43:55;9.60;71.70
4578;DHT22;2301;47.354;8.528;2024-02-26T06:46:23;9.60;71.40
4578;DHT22;2301;47.354;8.528;2024-02-26T06:48:51;9.60;71.10
4578;DHT22;2301;47.354;8.528;2024-02-26T06:51:19;9.60;70.80
4578;DHT22;2301;47.354;8.528;2024-02-26T06:54:04;9.60;70.70
4578;DHT22;2301;47.354;8.528;2024-02-26T06:56:31;9.70;70.60
4578;DHT22;2301;47.354;8.528;2024-02-26T06:59:01;9.60;70.50
4578;DHT22;2301;47.354;8.528;2024-02-26T07:01:29;9.70;70.50
4578;DHT22;2301;47.354;8.528;2024-02-26T07:03:56;9.70;70.50
4578;DHT22;2301;47.354;8.528;2024-02-26T07:06:23;9.70;70.40
4578;DHT22;2301;47.354;8.528;2024-02-26T07:08:51;9.70;70.50
4578;DHT22;2301;47.354;8.528;2024-02-26T07:11:20;9.70;70.60
4578;DHT22;2301;47.354;8.528;2024-02-26T07:13:47;9.70;70.50
4578;DHT22;2301;47.354;8.528;2024-02-26T07:16:18;9.70;70.50
4578;DHT22;2301;47.354;8.528;2024-02-26T07:18:45;9.90;74.50
4578;DHT22;2301;47.354;8.528;2024-02-26T07:21:12;10.00;70.80
4578;DHT22;2301;47.354;8.528;2024-02-26T07:23:39;10.00;70.00
4578;DHT22;2301;47.354;8.528;2024-02-26T07:26:06;10.10;69.80
4578;DHT22;2301;47.354;8.528;2024-02-26T07:28:35;10.10;69.40
4578;DHT22;2301;47.354;8.528;2024-02-26T07:31:03;10.10;69.00
4578;DHT22;2301;47.354;8.528;2024-02-26T07:33:30;10.10;68.90
4578;DHT22;2301;47.354;8.528;2024-02-26T07:35:57;10.10;68.90
4578;DHT22;2301;47.354;8.528;2024-02-26T07:38:24;10.20;69.40
4578;DHT22;2301;47.354;8.528;2024-02-26T07:46:51;10.30;68.10
4578;DHT22;2301;47.354;8.528;2024-02-26T07:49:17;10.30;68.00
4578;DHT22;2301;47.354;8.528;2024-02-26T07:51:44;10.40;68.40
4578;DHT22;2301;47.354;8.528;2024-02-26T07:54:11;10.50;68.70
4578;DHT22;2301;47.354;8.528;2024-02-26T07:56:38;10.60;68.90
4578;DHT22;2301;47.354;8.528;2024-02-26T07:59:05;10.60;68.10
4578;DHT22;2301;47.354;8.528;2024-02-26T08:01:32;10.60;67.60
4578;DHT22;2301;47.354;8.528;2024-02-26T08:04:01;10.70;67.10
4578;DHT22;2301;47.354;8.528;2024-02-26T08:06:28;10.80;66.40
4578;DHT22;2301;47.354;8.528;2024-02-26T08:08:55;10.80;66.50
4578;DHT22;2301;47.354;8.528;2024-02-26T08:11:22;10.90;66.10
4578;DHT22;2301;47.354;8.528;2024-02-26T08:13:49;11.00;66.50
4578;DHT22;2301;47.354;8.528;2024-02-26T08:16:15;11.20;67.40
4578;DHT22;2301;47.354;8.528;2024-02-26T08:18:42;11.50;68.30
4578;DHT22;2301;47.354;8.528;2024-02-26T08:21:12;11.90;68.70
4578;DHT22;2301;47.354;8.528;2024-02-26T08:23:44;12.40;68.80
4578;DHT22;2301;47.354;8.528;2024-02-26T08:26:12;12.80;67.50
4578;DHT22;2301;47.354;8.528;2024-02-26T08:28:38;13.20;66.60
4578;DHT22;2301;47.354;8.528;2024-02-26T08:31:07;13.40;65.40
4578;DHT22;2301;47.354;8.528;2024-02-26T08:33:36;13.60;63.90
4578;DHT22;2301;47.354;8.528;2024-02-26T08:36:06;13.80;63.90
4578;DHT22;2301;47.354;8.528;2024-02-26T08:38:38;14.00;63.00
4578;DHT22;2301;47.354;8.528;2024-02-26T08:41:07;14.00;61.60
4578;DHT22;2301;47.354;8.528;2024-02-26T08:43:36;13.90;60.30
4578;DHT22;2301;47.354;8.528;2024-02-26T08:46:03;13.90;60.30
4578;DHT22;2301;47.354;8.528;2024-02-26T08:48:30;13.90;66.70
4578;DHT22;2301;47.354;8.528;2024-02-26T08:50:57;14.30;72.30
4578;DHT22;2301;47.354;8.528;2024-02-26T08:53:24;14.20;64.20
4578;DHT22;2301;47.354;8.528;2024-02-26T08:55:53;14.10;61.50
4578;DHT22;2301;47.354;8.528;2024-02-26T08:58:20;14.00;60.50
4578;DHT22;2301;47.354;8.528;2024-02-26T09:00:47;13.90;60.00
4578;DHT22;2301;47.354;8.528;2024-02-26T09:03:14;13.80;59.90
4578;DHT22;2301;47.354;8.528;2024-02-26T09:05:41;13.80;59.90
4578;DHT22;2301;47.354;8.528;2024-02-26T09:08:08;13.70;59.90
4578;DHT22;2301;47.354;8.528;2024-02-26T09:10:35;13.60;59.90
4578;DHT22;2301;47.354;8.528;2024-02-26T09:13:03;13.60;60.20
4578;DHT22;2301;47.354;8.528;2024-02-26T09:15:30;13.60;60.00
4578;DHT22;2301;47.354;8.528;2024-02-26T09:17:57;13.60;60.00
4578;DHT22;2301;47.354;8.528;2024-02-26T09:20:24;13.50;60.00
4578;DHT22;2301;47.354;8.528;2024-02-26T09:22:51;13.50;60.00
4578;DHT22;2301;47.354;8.528;2024-02-26T09:25:19;13.40;60.20
4578;DHT22;2301;47.354;8.528;2024-02-26T09:27:46;13.50;60.40
4578;DHT22;2301;47.354;8.528;2024-02-26T09:30:15;13.40;60.20
4578;DHT22;2301;47.354;8.528;2024-02-26T09:32:46;13.40;60.40
4578;DHT22;2301;47.354;8.528;2024-02-26T09:35:13;13.40;60.70
4578;DHT22;2301;47.354;8.528;2024-02-26T09:37:40;13.40;60.70
4578;DHT22;2301;47.354;8.528;2024-02-26T09:40:10;13.40;60.60
4578;DHT22;2301;47.354;8.528;2024-02-26T09:42:42;13.40;60.60
4578;DHT22;2301;47.354;8.528;2024-02-26T09:45:12;13.50;60.40
4578;DHT22;2301;47.354;8.528;2024-02-26T09:47:45;13.50;60.30
4578;DHT22;2301;47.354;8.528;2024-02-26T09:50:14;13.50;60.40
4578;DHT22;2301;47.354;8.528;2024-02-26T09:52:43;13.60;60.10
4578;DHT22;2301;47.354;8.528;2024-02-26T09:55:10;13.60;60.20
4578;DHT22;2301;47.354;8.528;2024-02-26T09:57:37;13.60;60.50
4578;DHT22;2301;47.354;8.528;2024-02-26T10:00:08;13.70;60.50
4578;DHT22;2301;47.354;8.528;2024-02-26T10:02:38;13.70;59.60
4578;DHT22;2301;47.354;8.528;2024-02-26T10:05:10;13.70;59.30
4578;DHT22;2301;47.354;8.528;2024-02-26T10:07:39;13.60;59.20
4578;DHT22;2301;47.354;8.528;2024-02-26T10:10:08;13.60;59.00
4578;DHT22;2301;47.354;8.528;2024-02-26T10:12:35;13.60;59.10
4578;DHT22;2301;47.354;8.528;2024-02-26T10:15:02;13.50;58.80
4578;DHT22;2301;47.354;8.528;2024-02-26T10:17:29;13.50;59.00
4578;DHT22;2301;47.354;8.528;2024-02-26T10:20:12;13.50;59.20
4578;DHT22;2301;47.354;8.528;2024-02-26T10:22:40;13.50;59.00
4578;DHT22;2301;47.354;8.528;2024-02-26T10:25:08;13.50;59.10
4578;DHT22;2301;47.354;8.528;2024-02-26T10:27:35;13.50;59.30
4578;DHT22;2301;47.354;8.528;2024-02-26T10:30:03;13.50;59.40
4578;DHT22;2301;47.354;8.528;2024-02-26T10:32:30;13.50;59.60
4578;DHT22;2301;47.354;8.528;2024-02-26T10:34:58;13.40;59.40
4578;DHT22;2301;47.354;8.528;2024-02-26T10:37:27;13.40;59.30
4578;DHT22;2301;47.354;8.528;2024-02-26T10:39:53;13.40;59.30
4578;DHT22;2301;47.354;8.528;2024-02-26T10:42:20;13.40;59.50
4578;DHT22;2301;47.354;8.528;2024-02-26T10:44:47;13.40;59.80
4578;DHT22;2301;47.354;8.528;2024-02-26T10:47:15;13.40;59.70
4578;DHT22;2301;47.354;8.528;2024-02-26T10:49:45;13.50;59.70
4578;DHT22;2301;47.354;8.528;2024-02-26T10:52:14;13.50;60.10
4578;DHT22;2301;47.354;8.528;2024-02-26T10:54:44;13.60;60.20
4578;DHT22;2301;47.354;8.528;2024-02-26T10:57:13;13.60;60.10
4578;DHT22;2301;47.354;8.528;2024-02-26T10:59:42;13.70;60.30
4578;DHT22;2301;47.354;8.528;2024-02-26T11:02:10;13.70;60.20
4578;DHT22;2301;47.354;8.528;2024-02-26T11:04:39;13.70;60.00
4578;DHT22;2301;47.354;8.528;2024-02-26T11:07:08;13.60;60.00
4578;DHT22;2301;47.354;8.528;2024-02-26T11:09:36;13.70;60.40
4578;DHT22;2301;47.354;8.528;2024-02-26T11:12:10;13.70;60.20
4578;DHT22;2301;47.354;8.528;2024-02-26T11:14:39;13.70;60.60
4578;DHT22;2301;47.354;8.528;2024-02-26T11:17:08;13.70;60.70
4578;DHT22;2301;47.354;8.528;2024-02-26T11:19:36;13.70;60.90
4578;DHT22;2301;47.354;8.528;2024-02-26T11:22:04;13.70;60.90
4578;DHT22;2301;47.354;8.528;2024-02-26T11:24:32;13.70;61.30
4578;DHT22;2301;47.354;8.528;2024-02-26T11:27:02;13.70;61.10
4578;DHT22;2301;47.354;8.528;2024-02-26T11:29:38;13.60;60.70
4578;DHT22;2301;47.354;8.528;2024-02-26T11:32:06;13.60;60.70
4578;DHT22;2301;47.354;8.528;2024-02-26T11:34:34;13.60;60.70
4578;DHT22;2301;47.354;8.528;2024-02-26T11:37:09;13.60;60.80
4578;DHT22;2301;47.354;8.528;2024-02-26T11:39:37;13.60;61.00
4578;DHT22;2301;47.354;8.528;2024-02-26T11:42:06;13.60;61.20
4578;DHT22;2301;47.354;8.528;2024-02-26T11:44:35;13.60;61.30
4578;DHT22;2301;47.354;8.528;2024-02-26T11:47:10;13.60;61.30
4578;DHT22;2301;47.354;8.528;2024-02-26T11:49:37;13.60;61.30
4578;DHT22;2301;47.354;8.528;2024-02-26T11:52:06;13.60;61.30
4578;DHT22;2301;47.354;8.528;2024-02-26T11:54:43;13.60;61.40
4578;DHT22;2301;47.354;8.528;2024-02-26T11:57:21;13.70;61.50
4578;DHT22;2301;47.354;8.528;2024-02-26T11:59:49;13.70;61.50
4578;DHT22;2301;47.354;8.528;2024-02-26T12:02:38;13.70;61.50
4578;DHT22;2301;47.354;8.528;2024-02-26T12:05:07;13.70;61.50
4578;DHT22;2301;47.354;8.528;2024-02-26T12:07:36;13.80;61.40
4578;DHT22;2301;47.354;8.528;2024-02-26T12:10:21;13.80;60.80
4578;DHT22;2301;47.354;8.528;2024-02-26T12:12:54;13.90;60.20
4578;DHT22;2301;47.354;8.528;2024-02-26T12:15:24;13.90;60.20
4578;DHT22;2301;47.354;8.528;2024-02-26T12:17:52;13.90;60.00
4578;DHT22;2301;47.354;8.528;2024-02-26T12:20:20;14.00;60.60
4578;DHT22;2301;47.354;8.528;2024-02-26T12:22:47;14.10;59.70
4578;DHT22;2301;47.354;8.528;2024-02-26T12:25:16;14.10;59.20
4578;DHT22;2301;47.354;8.528;2024-02-26T12:27:43;14.30;59.10
4578;DHT22;2301;47.354;8.528;2024-02-26T12:30:11;14.30;58.70
4578;DHT22;2301;47.354;8.528;2024-02-26T12:32:39;14.40;59.20
4578;DHT22;2301;47.354;8.528;2024-02-26T12:35:07;14.50;59.10
4578;DHT22;2301;47.354;8.528;2024-02-26T12:37:34;14.60;58.80
4578;DHT22;2301;47.354;8.528;2024-02-26T12:40:04;14.60;58.60
4578;DHT22;2301;47.354;8.528;2024-02-26T12:42:32;14.70;58.60
4578;DHT22;2301;47.354;8.528;2024-02-26T12:45:06;14.80;58.30
4578;DHT22;2301;47.354;8.528;2024-02-26T12:47:36;14.90;57.90
4578;DHT22;2301;47.354;8.528;2024-02-26T12:50:06;14.90;57.90
4578;DHT22;2301;47.354;8.528;2024-02-26T12:52:34;14.90;57.60
4578;DHT22;2301;47.354;8.528;2024-02-26T12:55:02;14.90;57.10
4578;DHT22;2301;47.354;8.528;2024-02-26T12:57:30;14.90;57.10
4578;DHT22;2301;47.354;8.528;2024-02-26T12:59:58;14.90;56.90
4578;DHT22;2301;47.354;8.528;2024-02-26T13:02:26;15.00;57.20
4578;DHT22;2301;47.354;8.528;2024-02-26T13:04:54;15.00;57.20
4578;DHT22;2301;47.354;8.528;2024-02-26T13:07:22;15.00;57.00
4578;DHT22;2301;47.354;8.528;2024-02-26T13:09:49;15.00;56.80
4578;DHT22;2301;47.354;8.528;2024-02-26T13:12:16;15.00;56.70
4578;DHT22;2301;47.354;8.528;2024-02-26T13:14:43;15.00;56.90
4578;DHT22;2301;47.354;8.528;2024-02-26T13:17:10;14.90;56.70
4578;DHT22;2301;47.354;8.528;2024-02-26T13:19:37;14.90;57.00
4578;DHT22;2301;47.354;8.528;2024-02-26T13:22:05;14.90;57.00
4578;DHT22;2301;47.354;8.528;2024-02-26T13:24:34;14.90;56.90
4578;DHT22;2301;47.354;8.528;2024-02-26T13:27:03;14.90;56.90
4578;DHT22;2301;47.354;8.528;2024-02-26T13:29:33;14.90;57.00
4578;DHT22;2301;47.354;8.528;2024-02-26T13:32:03;14.90;56.70
4578;DHT22;2301;47.354;8.528;2024-02-26T13:34:31;14.90;56.50
4578;DHT22;2301;47.354;8.528;2024-02-26T13:36:59;14.80;56.60
4578;DHT22;2301;47.354;8.528;2024-02-26T13:39:27;14.80;56.40
4578;DHT22;2301;47.354;8.528;2024-02-26T13:41:57;14.80;56.20
4578;DHT22;2301;47.354;8.528;2024-02-26T13:44:24;14.70;56.30
4578;DHT22;2301;47.354;8.528;2024-02-26T13:46:51;14.70;56.20
4578;DHT22;2301;47.354;8.528;2024-02-26T13:49:17;14.70;56.10
4578;DHT22;2301;47.354;8.528;2024-02-26T13:51:44;14.70;56.50
4578;DHT22;2301;47.354;8.528;2024-02-26T13:54:12;14.70;57.20
4578;DHT22;2301;47.354;8.528;2024-02-26T13:56:42;14.70;57.70
4578;DHT22;2301;47.354;8.528;2024-02-26T13:59:12;14.70;57.70
4578;DHT22;2301;47.354;8.528;2024-02-26T14:01:39;14.60;57.60
4578;DHT22;2301;47.354;8.528;2024-02-26T14:04:06;14.60;57.60
4578;DHT22;2301;47.354;8.528;2024-02-26T14:06:34;14.60;57.70
4578;DHT22;2301;47.354;8.528;2024-02-26T14:09:01;14.60;57.60
4578;DHT22;2301;47.354;8.528;2024-02-26T14:11:29;14.50;57.60
4578;DHT22;2301;47.354;8.528;2024-02-26T14:13:56;14.50;57.70
4578;DHT22;2301;47.354;8.528;2024-02-26T14:16:24;14.50;58.40
4578;DHT22;2301;47.354;8.528;2024-02-26T14:18:51;14.50;57.70
4578;DHT22;2301;47.354;8.528;2024-02-26T14:21:18;14.50;57.70
4578;DHT22;2301;47.354;8.528;2024-02-26T14:23:46;14.50;57.30
4578;DHT22;2301;47.354;8.528;2024-02-26T14:26:13;14.40;56.90
4578;DHT22;2301;47.354;8.528;2024-02-26T14:28:40;14.40;56.40
4578;DHT22;2301;47.354;8.528;2024-02-26T14:31:07;14.40;56.20
4578;DHT22;2301;47.354;8.528;2024-02-26T14:33:38;14.40;56.90
4578;DHT22;2301;47.354;8.528;2024-02-26T14:36:06;14.40;56.20
4578;DHT22;2301;47.354;8.528;2024-02-26T14:38:34;14.30;56.10
4578;DHT22;2301;47.354;8.528;2024-02-26T14:41:00;14.30;56.10
4578;DHT22;2301;47.354;8.528;2024-02-26T14:43:28;14.30;56.30
4578;DHT22;2301;47.354;8.528;2024-02-26T14:45:55;14.30;56.10
4578;DHT22;2301;47.354;8.528;2024-02-26T14:48:22;14.30;56.20
4578;DHT22;2301;47.354;8.528;2024-02-26T14:50:50;14.30;56.20
4578;DHT22;2301;47.354;8.528;2024-02-26T14:53:17;14.30;56.20
4578;DHT22;2301;47.354;8.528;2024-02-26T14:55:44;14.20;56.10
4578;DHT22;2301;47.354;8.528;2024-02-26T14:58:11;14.20;56.10
4578;DHT22;2301;47.354;8.528;2024-02-26T15:00:38;14.20;56.00
4578;DHT22;2301;47.354;8.528;2024-02-26T15:03:06;14.20;56.10
4578;DHT22;2301;47.354;8.528;2024-02-26T15:05:34;14.10;55.90
4578;DHT22;2301;47.354;8.528;2024-02-26T15:08:02;14.10;55.90
4578;DHT22;2301;47.354;8.528;2024-02-26T15:10:29;14.10;55.80
4578;DHT22;2301;47.354;8.528;2024-02-26T15:12:56;14.10;55.80
4578;DHT22;2301;47.354;8.528;2024-02-26T15:15:23;14.00;55.60
4578;DHT22;2301;47.354;8.528;2024-02-26T15:17:50;14.00;55.70
4578;DHT22;2301;47.354;8.528;2024-02-26T15:20:18;14.00;55.50
4578;DHT22;2301;47.354;8.528;2024-02-26T15:22:45;14.00;55.40
4578;DHT22;2301;47.354;8.528;2024-02-26T15:25:14;14.00;55.30
4578;DHT22;2301;47.354;8.528;2024-02-26T15:27:42;13.90;55.00
4578;DHT22;2301;47.354;8.528;2024-02-26T15:30:10;14.00;55.20
4578;DHT22;2301;47.354;8.528;2024-02-26T15:32:37;13.90;54.90
4578;DHT22;2301;47.354;8.528;2024-02-26T15:35:04;13.90;54.80
4578;DHT22;2301;47.354;8.528;2024-02-26T15:37:32;13.90;55.00
4578;DHT22;2301;47.354;8.528;2024-02-26T15:39:59;13.90;55.10
4578;DHT22;2301;47.354;8.528;2024-02-26T15:42:27;13.90;55.10
4578;DHT22;2301;47.354;8.528;2024-02-26T15:44:54;13.80;55.10
4578;DHT22;2301;47.354;8.528;2024-02-26T15:47:21;13.80;55.30
4578;DHT22;2301;47.354;8.528;2024-02-26T15:49:48;13.80;55.30
4578;DHT22;2301;47.354;8.528;2024-02-26T15:52:15;13.80;55.30
4578;DHT22;2301;47.354;8.528;2024-02-26T15:54:42;13.80;55.10
4578;DHT22;2301;47.354;8.528;2024-02-26T15:57:11;13.80;55.10
4578;DHT22;2301;47.354;8.528;2024-02-26T15:59:40;13.80;54.70
4578;DHT22;2301;47.354;8.528;2024-02-26T16:02:07;13.80;54.50
4578;DHT22;2301;47.354;8.528;2024-02-26T16:04:34;13.80;54.40
4578;DHT22;2301;47.354;8.528;2024-02-26T16:07:03;13.80;54.50
4578;DHT22;2301;47.354;8.528;2024-02-26T16:09:34;13.80;54.70
4578;DHT22;2301;47.354;8.528;2024-02-26T16:12:08;13.80;54.90
4578;DHT22;2301;47.354;8.528;2024-02-26T16:14:43;13.80;54.70
4578;DHT22;2301;47.354;8.528;2024-02-26T16:17:18;13.70;54.40
4578;DHT22;2301;47.354;8.528;2024-02-26T16:19:48;13.80;54.90